sensor_id;sensor_type;location;lat;lon;timestamp;temperature;humidity
2327;DHT22;1174;51.588;7.328;2023-04-25T00:02:11;8.00;99.90
2327;DHT22;1174;51.588;7.328;2023-04-25T00:04:39;8.00;99.90
2327;DHT22;1174;51.588;7.328;2023-04-25T00:07:06;8.00;99.90
2327;DHT22;1174;51.588;7.328;2023-04-25T00:09:45;7.90;99.90
2327;DHT22;1174;51.588;7.328;2023-04-25T00:12:12;7.90;99.90
2327;DHT22;1174;51.588;7.328;2023-04-25T00:14:39;8.00;99.90
2327;DHT22;1174;51.588;7.328;2023-04-25T00:17:07;8.10;99.90
2327;DHT22;1174;51.588;7.328;2023-04-25T00:19:39;8.10;99.90
2327;DHT22;1174;51.588;7.328;2023-04-25T00:22:06;8.00;99.90
2327;DHT22;1174;51.588;7.328;2023-04-25T00:24:34;8.10;99.90
2327;DHT22;1174;51.588;7.328;2023-04-25T00:27:01;8.10;99.90
2327;DHT22;1174;51.588;7.328;2023-04-25T00:29:31;8.00;99.90
2327;DHT22;1174;51.588;7.328;2023-04-25T00:31:58;8.00;99.90
2327;DHT22;1174;51.588;7.328;2023-04-25T00:34:26;8.00;99.90
2327;DHT22;1174;51.588;7.328;2023-04-25T00:36:54;8.10;99.90
2327;DHT22;1174;51.588;7.328;2023-04-25T00:39:23;8.10;99.90
2327;DHT22;1174;51.588;7.328;2023-04-25T00:41:55;8.10;99.90
2327;DHT22;1174;51.588;7.328;2023-04-25T00:44:22;8.00;99.90
2327;DHT22;1174;51.588;7.328;2023-04-25T00:46:52;8.10;99.90
2327;DHT22;1174;51.588;7.328;2023-04-25T00:49:20;8.20;99.90
2327;DHT22;1174;51.588;7.328;2023-04-25T00:51:48;8.20;99.90
2327;DHT22;1174;51.588;7.328;2023-04-25T00:54:17;8.20;99.90
2327;DHT22;1174;51.588;7.328;2023-04-25T00:56:44;8.30;99.90
2327;DHT22;1174;51.588;7.328;2023-04-25T00:59:12;8.20;99.90
2327;DHT22;1174;51.588;7.328;2023-04-25T01:01:40;8.20;99.90
2327;DHT22;1174;51.588;7.328;2023-04-25T01:04:08;8.30;99.90
2327;DHT22;1174;51.588;7.328;2023-04-25T01:06:35;8.20;99.90
2327;DHT22;1174;51.588;7.328;2023-04-25T01:09:03;8.20;99.90
2327;DHT22;1174;51.588;7.328;2023-04-25T01:11:32;8.20;99.90
2327;DHT22;1174;51.588;7.328;2023-04-25T01:13:59;8.20;99.90
2327;DHT22;1174;51.588;7.328;2023-04-25T01:16:27;8.30;99.90
2327;DHT22;1174;51.588;7.328;2023-04-25T01:18:56;8.30;99.90
2327;DHT22;1174;51.588;7.328;2023-04-25T01:21:25;8.30;99.90
2327;DHT22;1174;51.588;7.328;2023-04-25T01:23:55;8.30;99.90
2327;DHT22;1174;51.588;7.328;2023-04-25T01:26:23;8.10;99.90
2327;DHT22;1174;51.588;7.328;2023-04-25T01:28:51;8.20;99.90
2327;DHT22;1174;51.588;7.328;2023-04-25T01:31:18;8.20;99.90
2327;DHT22;1174;51.588;7.328;2023-04-25T01:33:46;8.30;99.90
2327;DHT22;1174;51.588;7.328;2023-04-25T01:36:14;8.30;99.90
2327;DHT22;1174;51.588;7.328;2023-04-25T01:38:44;8.40;99.90
2327;DHT22;1174;51.588;7.328;2023-04-25T01:41:14;8.20;99.90
2327;DHT22;1174;51.588;7.328;2023-04-25T01:43:43;8.20;99.90
2327;DHT22;1174;51.588;7.328;2023-04-25T01:46:11;8.10;99.90
2327;DHT22;1174;51.588;7.328;2023-04-25T01:48:38;8.10;99.90
2327;DHT22;1174;51.588;7.328;2023-04-25T01:51:07;8.30;99.90
2327;DHT22;1174;51.588;7.328;2023-04-25T01:53:34;8.30;99.90
2327;DHT22;1174;51.588;7.328;2023-04-25T01:56:06;8.30;99.90
2327;DHT22;1174;51.588;7.328;2023-04-25T01:58:35;8.30;99.90
2327;DHT22;1174;51.588;7.328;2023-04-25T02:01:02;8.20;99.90
2327;DHT22;1174;51.588;7.328;2023-04-25T02:03:30;8.30;99.90
2327;DHT22;1174;51.588;7.328;2023-04-25T02:05:58;8.20;99.90
2327;DHT22;1174;51.588;7.328;2023-04-25T02:08:25;8.20;99.90
2327;DHT22;1174;51.588;7.328;2023-04-25T02:10:53;8.20;99.90
2327;DHT22;1174;51.588;7.328;2023-04-25T02:13:22;8.20;99.90
2327;DHT22;1174;51.588;7.328;2023-04-25T02:15:49;8.10;99.90
2327;DHT22;1174;51.588;7.328;2023-04-25T02:18:16;8.10;99.90
2327;DHT22;1174;51.588;7.328;2023-04-25T02:20:43;8.20;99.90
2327;DHT22;1174;51.588;7.328;2023-04-25T02:23:11;8.30;99.90
2327;DHT22;1174;51.588;7.328;2023-04-25T02:25:40;8.10;99.90
2327;DHT22;1174;51.588;7.328;2023-04-25T02:28:07;8.20;99.90
2327;DHT22;1174;51.588;7.328;2023-04-25T02:30:38;8.20;99.90
2327;DHT22;1174;51.588;7.328;2023-04-25T02:33:06;8.30;99.90
2327;DHT22;1174;51.588;7.328;2023-04-25T02:35:33;8.30;99.90
2327;DHT22;1174;51.588;7.328;2023-04-25T02:38:01;8.20;99.90
2327;DHT22;1174;51.588;7.328;2023-04-25T02:40:28;8.20;99.90
2327;DHT22;1174;51.588;7.328;2023-04-25T02:42:56;8.10;99.90
2327;DHT22;1174;51.588;7.328;2023-04-25T02:45:23;8.20;99.90
2327;DHT22;1174;51.588;7.328;2023-04-25T02:47:51;8.20;99.90
2327;DHT22;1174;51.588;7.328;2023-04-25T02:50:19;8.30;99.90
2327;DHT22;1174;51.588;7.328;2023-04-25T02:52:48;8.30;99.90
2327;DHT22;1174;51.588;7.328;2023-04-25T02:55:15;8.20;99.90
2327;DHT22;1174;51.588;7.328;2023-04-25T02:57:45;8.20;99.90
2327;DHT22;1174;51.588;7.328;2023-04-25T03:00:15;8.10;99.90
2327;DHT22;1174;51.588;7.328;2023-04-25T03:02:42;8.10;99.90
2327;DHT22;1174;51.588;7.328;2023-04-25T03:05:11;8.10;99.90
2327;DHT22;1174;51.588;7.328;2023-04-25T03:07:38;8.10;99.90
2327;DHT22;1174;51.588;7.328;2023-04-25T03:10:07;8.10;99.90
2327;DHT22;1174;51.588;7.328;2023-04-25T03:12:34;8.00;99.90
2327;DHT22;1174;51.588;7.328;2023-04-25T03:15:01;7.80;99.90
2327;DHT22;1174;51.588;7.328;2023-04-25T03:17:28;7.80;99.90
2327;DHT22;1174;51.588;7.328;2023-04-25T03:19:55;7.80;99.90
2327;DHT22;1174;51.588;7.328;2023-04-25T03:22:24;8.00;99.90
2327;DHT22;1174;51.588;7.328;2023-04-25T03:24:51;7.90;99.90
2327;DHT22;1174;51.588;7.328;2023-04-25T03:27:18;8.00;99.90
2327;DHT22;1174;51.588;7.328;2023-04-25T03:29:47;8.00;99.90
2327;DHT22;1174;51.588;7.328;2023-04-25T03:32:14;8.00;99.90
2327;DHT22;1174;51.588;7.328;2023-04-25T03:34:41;7.90;99.90
2327;DHT22;1174;51.588;7.328;2023-04-25T03:37:08;7.90;99.90
2327;DHT22;1174;51.588;7.328;2023-04-25T03:39:37;7.90;99.90
2327;DHT22;1174;51.588;7.328;2023-04-25T03:42:04;7.90;99.90
2327;DHT22;1174;51.588;7.328;2023-04-25T03:44:31;7.80;99.90
2327;DHT22;1174;51.588;7.328;2023-04-25T03:46:58;7.90;99.90
2327;DHT22;1174;51.588;7.328;2023-04-25T03:49:27;7.70;99.90
2327;DHT22;1174;51.588;7.328;2023-04-25T03:51:54;7.80;99.90
2327;DHT22;1174;51.588;7.328;2023-04-25T03:54:21;7.40;99.90
2327;DHT22;1174;51.588;7.328;2023-04-25T03:56:53;7.30;99.90
2327;DHT22;1174;51.588;7.328;2023-04-25T03:59:20;7.20;99.90
2327;DHT22;1174;51.588;7.328;2023-04-25T04:01:51;7.00;99.90
2327;DHT22;1174;51.588;7.328;2023-04-25T04:04:19;7.00;99.90
2327;DHT22;1174;51.588;7.328;2023-04-25T04:06:45;7.00;99.90
2327;DHT22;1174;51.588;7.328;2023-04-25T04:09:12;6.90;99.90
2327;DHT22;1174;51.588;7.328;2023-04-25T04:11:41;6.90;99.90
2327;DHT22;1174;51.588;7.328;2023-04-25T04:14:15;7.00;99.90
2327;DHT22;1174;51.588;7.328;2023-04-25T04:16:43;7.10;99.90
2327;DHT22;1174;51.588;7.328;2023-04-25T04:19:13;7.20;99.90
2327;DHT22;1174;51.588;7.328;2023-04-25T04:21:42;7.10;99.90
2327;DHT22;1174;51.588;7.328;2023-04-25T04:24:10;7.00;99.90
2327;DHT22;1174;51.588;7.328;2023-04-25T04:26:37;7.00;99.90
2327;DHT22;1174;51.588;7.328;2023-04-25T04:29:07;7.30;99.90
2327;DHT22;1174;51.588;7.328;2023-04-25T04:31:37;7.30;99.90
2327;DHT22;1174;51.588;7.328;2023-04-25T04:34:06;7.30;99.90
2327;DHT22;1174;51.588;7.328;2023-04-25T04:36:35;7.40;99.90
2327;DHT22;1174;51.588;7.328;2023-04-25T04:39:01;7.40;99.90
2327;DHT22;1174;51.588;7.328;2023-04-25T04:41:29;7.50;99.90
2327;DHT22;1174;51.588;7.328;2023-04-25T04:53:10;7.40;99.90
2327;DHT22;1174;51.588;7.328;2023-04-25T04:55:37;7.20;99.90
2327;DHT22;1174;51.588;7.328;2023-04-25T04:58:04;7.20;99.90
2327;DHT22;1174;51.588;7.328;2023-04-25T05:00:33;7.10;99.90
2327;DHT22;1174;51.588;7.328;2023-04-25T05:03:00;7.10;99.90
2327;DHT22;1174;51.588;7.328;2023-04-25T05:05:29;7.00;99.90
2327;DHT22;1174;51.588;7.328;2023-04-25T05:07:56;7.00;99.90
2327;DHT22;1174;51.588;7.328;2023-04-25T05:10:26;7.00;99.90
2327;DHT22;1174;51.588;7.328;2023-04-25T05:12:53;6.90;99.90
2327;DHT22;1174;51.588;7.328;2023-04-25T05:15:20;7.00;99.90
2327;DHT22;1174;51.588;7.328;2023-04-25T05:17:50;7.10;99.90
2327;DHT22;1174;51.588;7.328;2023-04-25T05:20:22;7.10;99.90
2327;DHT22;1174;51.588;7.328;2023-04-25T05:22:52;7.30;99.90
2327;DHT22;1174;51.588;7.328;2023-04-25T05:25:20;7.30;99.90
2327;DHT22;1174;51.588;7.328;2023-04-25T05:27:50;7.50;99.90
2327;DHT22;1174;51.588;7.328;2023-04-25T05:30:18;7.80;99.90
2327;DHT22;1174;51.588;7.328;2023-04-25T05:32:45;7.90;99.90
2327;DHT22;1174;51.588;7.328;2023-04-25T05:35:12;8.00;99.90
2327;DHT22;1174;51.588;7.328;2023-04-25T05:37:39;8.00;99.90
2327;DHT22;1174;51.588;7.328;2023-04-25T05:40:09;7.90;99.90
2327;DHT22;1174;51.588;7.328;2023-04-25T05:42:37;7.90;99.90
2327;DHT22;1174;51.588;7.328;2023-04-25T05:45:05;7.80;99.90
2327;DHT22;1174;51.588;7.328;2023-04-25T05:47:32;7.80;99.90
2327;DHT22;1174;51.588;7.328;2023-04-25T05:50:01;7.80;99.90
2327;DHT22;1174;51.588;7.328;2023-04-25T05:52:29;7.90;99.90
2327;DHT22;1174;51.588;7.328;2023-04-25T05:54:56;8.00;99.90
2327;DHT22;1174;51.588;7.328;2023-04-25T05:57:26;8.00;99.90
2327;DHT22;1174;51.588;7.328;2023-04-25T05:59:54;8.10;99.90
2327;DHT22;1174;51.588;7.328;2023-04-25T06:02:23;8.20;99.90
2327;DHT22;1174;51.588;7.328;2023-04-25T06:05:00;8.20;99.90
2327;DHT22;1174;51.588;7.328;2023-04-25T06:07:28;8.30;99.90
2327;DHT22;1174;51.588;7.328;2023-04-25T06:09:57;8.20;99.90
2327;DHT22;1174;51.588;7.328;2023-04-25T06:12:27;8.10;99.90
2327;DHT22;1174;51.588;7.328;2023-04-25T06:14:54;8.00;99.90
2327;DHT22;1174;51.588;7.328;2023-04-25T06:17:21;8.10;99.90
2327;DHT22;1174;51.588;7.328;2023-04-25T06:19:48;8.10;99.90
2327;DHT22;1174;51.588;7.328;2023-04-25T06:22:15;8.10;99.90
2327;DHT22;1174;51.588;7.328;2023-04-25T06:24:42;8.20;99.90
2327;DHT22;1174;51.588;7.328;2023-04-25T06:27:09;8.30;99.90
2327;DHT22;1174;51.588;7.328;2023-04-25T06:29:38;8.60;99.90
2327;DHT22;1174;51.588;7.328;2023-04-25T06:32:06;8.70;99.90
2327;DHT22;1174;51.588;7.328;2023-04-25T06:34:34;9.00;99.90
2327;DHT22;1174;51.588;7.328;2023-04-25T06:37:10;9.20;99.90
2327;DHT22;1174;51.588;7.328;2023-04-25T06:39:37;9.40;99.90
2327;DHT22;1174;51.588;7.328;2023-04-25T06:42:05;9.50;99.90
2327;DHT22;1174;51.588;7.328;2023-04-25T06:44:32;9.80;99.90
2327;DHT22;1174;51.588;7.328;2023-04-25T06:47:01;9.40;99.90
2327;DHT22;1174;51.588;7.328;2023-04-25T06:49:28;9.30;99.90
2327;DHT22;1174;51.588;7.328;2023-04-25T06:51:55;9.30;99.90
2327;DHT22;1174;51.588;7.328;2023-04-25T06:54:22;9.40;99.90
2327;DHT22;1174;51.588;7.328;2023-04-25T06:56:50;9.60;99.90
2327;DHT22;1174;51.588;7.328;2023-04-25T06:59:17;9.50;99.90
2327;DHT22;1174;51.588;7.328;2023-04-25T07:01:47;9.60;99.90
2327;DHT22;1174;51.588;7.328;2023-04-25T07:04:16;9.90;99.90
2327;DHT22;1174;51.588;7.328;2023-04-25T07:06:43;9.60;99.90
2327;DHT22;1174;51.588;7.328;2023-04-25T07:09:10;9.60;99.90
2327;DHT22;1174;51.588;7.328;2023-04-25T07:11:37;9.80;99.90
2327;DHT22;1174;51.588;7.328;2023-04-25T07:14:04;9.50;99.90
2327;DHT22;1174;51.588;7.328;2023-04-25T07:16:32;9.50;99.90
2327;DHT22;1174;51.588;7.328;2023-04-25T07:18:59;9.30;99.90
2327;DHT22;1174;51.588;7.328;2023-04-25T07:21:29;9.30;99.90
2327;DHT22;1174;51.588;7.328;2023-04-25T07:23:57;9.50;99.90
2327;DHT22;1174;51.588;7.328;2023-04-25T07:26:25;9.60;99.90
2327;DHT22;1174;51.588;7.328;2023-04-25T07:28:53;9.70;99.90
2327;DHT22;1174;51.588;7.328;2023-04-25T07:31:20;9.90;99.90
2327;DHT22;1174;51.588;7.328;2023-04-25T07:33:47;10.50;99.90
2327;DHT22;1174;51.588;7.328;2023-04-25T07:36:17;10.70;99.90
2327;DHT22;1174;51.588;7.328;2023-04-25T07:38:51;10.70;99.90
2327;DHT22;1174;51.588;7.328;2023-04-25T07:41:18;10.60;99.90
2327;DHT22;1174;51.588;7.328;2023-04-25T07:43:49;10.60;99.90
2327;DHT22;1174;51.588;7.328;2023-04-25T07:46:16;10.40;99.90
2327;DHT22;1174;51.588;7.328;2023-04-25T07:48:44;10.30;99.90
2327;DHT22;1174;51.588;7.328;2023-04-25T07:51:13;10.10;99.90
2327;DHT22;1174;51.588;7.328;2023-04-25T07:53:40;10.10;99.90
2327;DHT22;1174;51.588;7.328;2023-04-25T07:56:09;10.40;99.90
2327;DHT22;1174;51.588;7.328;2023-04-25T07:58:36;10.70;99.90
2327;DHT22;1174;51.588;7.328;2023-04-25T08:01:03;10.70;99.90
2327;DHT22;1174;51.588;7.328;2023-04-25T08:03:30;10.80;99.90
2327;DHT22;1174;51.588;7.328;2023-04-25T08:05:57;10.90;99.90
2327;DHT22;1174;51.588;7.328;2023-04-25T08:08:26;10.80;99.90
2327;DHT22;1174;51.588;7.328;2023-04-25T08:10:55;11.10;99.90
2327;DHT22;1174;51.588;7.328;2023-04-25T08:13:24;11.20;99.90
2327;DHT22;1174;51.588;7.328;2023-04-25T08:15:53;11.20;99.90
2327;DHT22;1174;51.588;7.328;2023-04-25T08:18:23;12.20;99.90
2327;DHT22;1174;51.588;7.328;2023-04-25T08:20:50;13.50;99.90
2327;DHT22;1174;51.588;7.328;2023-04-25T08:23:25;14.60;99.90
2327;DHT22;1174;51.588;7.328;2023-04-25T08:25:52;15.00;99.90
2327;DHT22;1174;51.588;7.328;2023-04-25T08:28:23;15.00;99.90
2327;DHT22;1174;51.588;7.328;2023-04-25T08:30:50;14.70;99.90
2327;DHT22;1174;51.588;7.328;2023-04-25T08:33:17;14.30;99.90
2327;DHT22;1174;51.588;7.328;2023-04-25T08:35:47;13.90;99.90
2327;DHT22;1174;51.588;7.328;2023-04-25T08:38:14;13.70;99.90
2327;DHT22;1174;51.588;7.328;2023-04-25T08:40:43;12.80;99.90
2327;DHT22;1174;51.588;7.328;2023-04-25T08:43:13;12.40;99.90
2327;DHT22;1174;51.588;7.328;2023-04-25T08:45:42;12.30;99.90
2327;DHT22;1174;51.588;7.328;2023-04-25T08:48:11;12.00;99.90
2327;DHT22;1174;51.588;7.328;2023-04-25T08:50:40;12.10;99.90
2327;DHT22;1174;51.588;7.328;2023-04-25T08:53:09;12.40;99.90
2327;DHT22;1174;51.588;7.328;2023-04-25T08:55:41;12.60;99.90
2327;DHT22;1174;51.588;7.328;2023-04-25T08:58:10;12.80;99.90
2327;DHT22;1174;51.588;7.328;2023-04-25T09:00:37;13.00;99.90
2327;DHT22;1174;51.588;7.328;2023-04-25T09:03:06;13.60;99.90
2327;DHT22;1174;51.588;7.328;2023-04-25T09:05:34;14.30;99.90
2327;DHT22;1174;51.588;7.328;2023-04-25T09:08:02;13.90;99.90
2327;DHT22;1174;51.588;7.328;2023-04-25T09:10:33;14.10;99.90
2327;DHT22;1174;51.588;7.328;2023-04-25T09:13:08;14.20;99.90
2327;DHT22;1174;51.588;7.328;2023-04-25T09:15:48;14.00;99.90
2327;DHT22;1174;51.588;7.328;2023-04-25T09:18:31;13.50;99.90
2327;DHT22;1174;51.588;7.328;2023-04-25T09:21:05;12.80;99.90
2327;DHT22;1174;51.588;7.328;2023-04-25T09:23:43;12.20;99.90
2327;DHT22;1174;51.588;7.328;2023-04-25T09:26:14;12.10;99.90
2327;DHT22;1174;51.588;7.328;2023-04-25T09:28:42;11.70;99.90
2327;DHT22;1174;51.588;7.328;2023-04-25T09:31:10;11.50;99.90
2327;DHT22;1174;51.588;7.328;2023-04-25T09:33:40;11.30;99.90
2327;DHT22;1174;51.588;7.328;2023-04-25T09:36:08;11.30;99.90
2327;DHT22;1174;51.588;7.328;2023-04-25T09:38:41;11.60;99.90
2327;DHT22;1174;51.588;7.328;2023-04-25T09:41:10;11.90;99.90
2327;DHT22;1174;51.588;7.328;2023-04-25T09:43:39;12.60;99.90
2327;DHT22;1174;51.588;7.328;2023-04-25T09:46:08;13.50;99.90
2327;DHT22;1174;51.588;7.328;2023-04-25T09:48:37;13.80;99.90
2327;DHT22;1174;51.588;7.328;2023-04-25T09:51:07;13.70;99.90
2327;DHT22;1174;51.588;7.328;2023-04-25T09:53:34;14.10;99.90
2327;DHT22;1174;51.588;7.328;2023-04-25T09:56:04;14.10;99.90
2327;DHT22;1174;51.588;7.328;2023-04-25T09:58:34;14.70;99.90
2327;DHT22;1174;51.588;7.328;2023-04-25T10:01:06;15.00;98.50
2327;DHT22;1174;51.588;7.328;2023-04-25T10:03:37;14.70;98.10
2327;DHT22;1174;51.588;7.328;2023-04-25T10:06:12;15.60;99.40
2327;DHT22;1174;51.588;7.328;2023-04-25T10:08:42;15.80;96.60
2327;DHT22;1174;51.588;7.328;2023-04-25T10:11:10;15.30;95.70
2327;DHT22;1174;51.588;7.328;2023-04-25T10:13:41;14.80;97.50
2327;DHT22;1174;51.588;7.328;2023-04-25T10:16:09;14.90;96.80
2327;DHT22;1174;51.588;7.328;2023-04-25T10:18:39;14.60;95.90
2327;DHT22;1174;51.588;7.328;2023-04-25T10:21:08;14.60;96.60
2327;DHT22;1174;51.588;7.328;2023-04-25T10:23:36;14.20;96.70
2327;DHT22;1174;51.588;7.328;2023-04-25T10:26:05;14.80;95.90
2327;DHT22;1174;51.588;7.328;2023-04-25T10:28:55;14.60;96.70
2327;DHT22;1174;51.588;7.328;2023-04-25T10:31:22;14.10;95.80
2327;DHT22;1174;51.588;7.328;2023-04-25T10:33:49;13.60;96.20
2327;DHT22;1174;51.588;7.328;2023-04-25T10:36:20;13.00;98.20
2327;DHT22;1174;51.588;7.328;2023-04-25T10:38:50;12.70;99.30
2327;DHT22;1174;51.588;7.328;2023-04-25T10:41:19;12.40;99.50
2327;DHT22;1174;51.588;7.328;2023-04-25T10:43:47;12.30;99.20
2327;DHT22;1174;51.588;7.328;2023-04-25T10:46:16;11.90;99.70
2327;DHT22;1174;51.588;7.328;2023-04-25T10:48:48;11.20;98.90
2327;DHT22;1174;51.588;7.328;2023-04-25T10:51:24;10.70;99.90
2327;DHT22;1174;51.588;7.328;2023-04-25T10:53:59;10.80;99.90
2327;DHT22;1174;51.588;7.328;2023-04-25T10:56:31;10.80;99.90
2327;DHT22;1174;51.588;7.328;2023-04-25T10:59:06;11.00;99.90
2327;DHT22;1174;51.588;7.328;2023-04-25T11:01:37;10.90;99.90
2327;DHT22;1174;51.588;7.328;2023-04-25T11:04:04;10.80;99.90
2327;DHT22;1174;51.588;7.328;2023-04-25T11:06:43;10.90;99.90
2327;DHT22;1174;51.588;7.328;2023-04-25T11:09:13;10.80;99.90
2327;DHT22;1174;51.588;7.328;2023-04-25T11:11:40;10.80;99.90
2327;DHT22;1174;51.588;7.328;2023-04-25T11:14:08;10.90;99.90
2327;DHT22;1174;51.588;7.328;2023-04-25T11:16:35;11.10;99.90
2327;DHT22;1174;51.588;7.328;2023-04-25T11:19:02;11.20;99.90
2327;DHT22;1174;51.588;7.328;2023-04-25T11:21:30;11.30;99.90
2327;DHT22;1174;51.588;7.328;2023-04-25T11:24:00;11.30;99.90
2327;DHT22;1174;51.588;7.328;2023-04-25T11:26:27;11.50;99.90
2327;DHT22;1174;51.588;7.328;2023-04-25T11:28:57;11.90;99.90
2327;DHT22;1174;51.588;7.328;2023-04-25T11:31:25;12.40;99.90
2327;DHT22;1174;51.588;7.328;2023-04-25T11:33:53;12.80;99.90
2327;DHT22;1174;51.588;7.328;2023-04-25T11:36:22;13.10;99.90
2327;DHT22;1174;51.588;7.328;2023-04-25T11:38:50;13.80;99.90
2327;DHT22;1174;51.588;7.328;2023-04-25T11:41:21;15.40;99.60
2327;DHT22;1174;51.588;7.328;2023-04-25T11:43:49;16.00;96.90
2327;DHT22;1174;51.588;7.328;2023-04-25T11:46:17;16.40;95.80
2327;DHT22;1174;51.588;7.328;2023-04-25T11:48:46;15.40;94.00
2327;DHT22;1174;51.588;7.328;2023-04-25T11:51:15;14.90;86.70
2327;DHT22;1174;51.588;7.328;2023-04-25T11:53:42;15.90;90.20
2327;DHT22;1174;51.588;7.328;2023-04-25T11:56:13;17.30;86.50
2327;DHT22;1174;51.588;7.328;2023-04-25T11:58:59;17.50;84.20
2327;DHT22;1174;51.588;7.328;2023-04-25T12:01:28;18.30;77.10
2327;DHT22;1174;51.588;7.328;2023-04-25T12:04:09;18.80;76.60
2327;DHT22;1174;51.588;7.328;2023-04-25T12:06:42;18.80;76.80
2327;DHT22;1174;51.588;7.328;2023-04-25T12:09:17;18.80;77.30
2327;DHT22;1174;51.588;7.328;2023-04-25T12:11:45;19.50;72.90
2327;DHT22;1174;51.588;7.328;2023-04-25T12:14:25;20.10;70.70
2327;DHT22;1174;51.588;7.328;2023-04-25T12:16:54;19.70;67.40
2327;DHT22;1174;51.588;7.328;2023-04-25T12:19:23;18.30;70.50
2327;DHT22;1174;51.588;7.328;2023-04-25T12:21:50;18.80;71.90
2327;DHT22;1174;51.588;7.328;2023-04-25T12:24:21;19.30;73.10
2327;DHT22;1174;51.588;7.328;2023-04-25T12:26:52;18.20;72.90
2327;DHT22;1174;51.588;7.328;2023-04-25T12:29:21;16.10;76.30
2327;DHT22;1174;51.588;7.328;2023-04-25T12:31:51;15.60;78.90
2327;DHT22;1174;51.588;7.328;2023-04-25T12:34:19;15.10;80.60
2327;DHT22;1174;51.588;7.328;2023-04-25T12:36:49;14.70;78.80
2327;DHT22;1174;51.588;7.328;2023-04-25T12:39:17;14.60;78.40
2327;DHT22;1174;51.588;7.328;2023-04-25T12:41:45;14.20;75.30
2327;DHT22;1174;51.588;7.328;2023-04-25T12:44:12;13.80;74.60
2327;DHT22;1174;51.588;7.328;2023-04-25T12:46:40;13.90;75.60
2327;DHT22;1174;51.588;7.328;2023-04-25T12:49:09;14.10;75.50
2327;DHT22;1174;51.588;7.328;2023-04-25T12:51:38;13.90;77.10
2327;DHT22;1174;51.588;7.328;2023-04-25T12:54:06;14.20;78.20
2327;DHT22;1174;51.588;7.328;2023-04-25T12:56:35;14.00;77.10
2327;DHT22;1174;51.588;7.328;2023-04-25T12:59:04;13.50;77.50
2327;DHT22;1174;51.588;7.328;2023-04-25T13:01:31;13.10;79.40
2327;DHT22;1174;51.588;7.328;2023-04-25T13:04:00;13.10;80.70
2327;DHT22;1174;51.588;7.328;2023-04-25T13:06:28;13.10;81.60
2327;DHT22;1174;51.588;7.328;2023-04-25T13:08:56;13.10;81.00
2327;DHT22;1174;51.588;7.328;2023-04-25T13:11:23;13.70;82.10
2327;DHT22;1174;51.588;7.328;2023-04-25T13:13:51;14.80;81.60
2327;DHT22;1174;51.588;7.328;2023-04-25T13:16:19;15.50;78.30
2327;DHT22;1174;51.588;7.328;2023-04-25T13:18:46;16.50;77.80
2327;DHT22;1174;51.588;7.328;2023-04-25T13:21:13;17.30;76.60
2327;DHT22;1174;51.588;7.328;2023-04-25T13:23:42;17.00;75.70
2327;DHT22;1174;51.588;7.328;2023-04-25T13:26:10;16.40;76.20
2327;DHT22;1174;51.588;7.328;2023-04-25T13:28:37;15.70;77.40
2327;DHT22;1174;51.588;7.328;2023-04-25T13:31:06;14.60;80.90
2327;DHT22;1174;51.588;7.328;2023-04-25T13:33:33;14.00;85.50
2327;DHT22;1174;51.588;7.328;2023-04-25T13:36:00;13.20;90.50
2327;DHT22;1174;51.588;7.328;2023-04-25T13:38:28;12.50;92.60
2327;DHT22;1174;51.588;7.328;2023-04-25T13:40:58;12.00;95.10
2327;DHT22;1174;51.588;7.328;2023-04-25T13:43:25;11.80;99.90
2327;DHT22;1174;51.588;7.328;2023-04-25T13:45:56;11.60;99.90
2327;DHT22;1174;51.588;7.328;2023-04-25T13:48:24;11.30;99.90
2327;DHT22;1174;51.588;7.328;2023-04-25T13:50:51;11.30;99.90
2327;DHT22;1174;51.588;7.328;2023-04-25T13:53:18;11.70;99.90
2327;DHT22;1174;51.588;7.328;2023-04-25T13:55:46;12.10;99.90
2327;DHT22;1174;51.588;7.328;2023-04-25T13:58:19;12.30;99.90
2327;DHT22;1174;51.588;7.328;2023-04-25T14:00:46;13.00;99.90
2327;DHT22;1174;51.588;7.328;2023-04-25T14:03:13;13.20;99.90
2327;DHT22;1174;51.588;7.328;2023-04-25T14:05:40;13.10;99.90
2327;DHT22;1174;51.588;7.328;2023-04-25T14:08:09;13.00;99.90
2327;DHT22;1174;51.588;7.328;2023-04-25T14:10:37;12.90;99.90
2327;DHT22;1174;51.588;7.328;2023-04-25T14:13:05;12.90;99.90
2327;DHT22;1174;51.588;7.328;2023-04-25T14:15:41;13.70;99.90
2327;DHT22;1174;51.588;7.328;2023-04-25T14:18:11;16.10;99.90
2327;DHT22;1174;51.588;7.328;2023-04-25T14:20:41;17.70;97.60
2327;DHT22;1174;51.588;7.328;2023-04-25T14:23:09;19.10;94.60
2327;DHT22;1174;51.588;7.328;2023-04-25T14:25:38;20.10;90.60
2327;DHT22;1174;51.588;7.328;2023-04-25T14:28:08;20.00;84.40
2327;DHT22;1174;51.588;7.328;2023-04-25T14:30:38;20.20;76.40
2327;DHT22;1174;51.588;7.328;2023-04-25T14:33:09;18.50;79.10
2327;DHT22;1174;51.588;7.328;2023-04-25T14:35:42;16.60;81.20
2327;DHT22;1174;51.588;7.328;2023-04-25T14:38:11;15.10;79.80
2327;DHT22;1174;51.588;7.328;2023-04-25T14:40:38;14.70;85.80
2327;DHT22;1174;51.588;7.328;2023-04-25T14:43:05;14.30;85.70
2327;DHT22;1174;51.588;7.328;2023-04-25T14:45:33;14.00;86.40
2327;DHT22;1174;51.588;7.328;2023-04-25T14:48:01;13.50;90.80
2327;DHT22;1174;51.588;7.328;2023-04-25T14:50:29;12.90;92.30
2327;DHT22;1174;51.588;7.328;2023-04-25T14:52:56;12.30;94.90
2327;DHT22;1174;51.588;7.328;2023-04-25T14:55:26;12.30;98.00
2327;DHT22;1174;51.588;7.328;2023-04-25T14:57:53;12.40;98.50
2327;DHT22;1174;51.588;7.328;2023-04-25T15:00:21;12.80;98.90
2327;DHT22;1174;51.588;7.328;2023-04-25T15:02:49;12.60;99.10
2327;DHT22;1174;51.588;7.328;2023-04-25T15:05:16;12.50;98.50
2327;DHT22;1174;51.588;7.328;2023-04-25T15:07:47;12.80;98.10
2327;DHT22;1174;51.588;7.328;2023-04-25T15:10:14;12.90;97.10
2327;DHT22;1174;51.588;7.328;2023-04-25T15:12:42;13.10;96.80
2327;DHT22;1174;51.588;7.328;2023-04-25T15:15:11;13.20;96.50
2327;DHT22;1174;51.588;7.328;2023-04-25T15:17:40;13.00;97.30
2327;DHT22;1174;51.588;7.328;2023-04-25T15:20:09;12.80;97.00
2327;DHT22;1174;51.588;7.328;2023-04-25T15:22:37;12.60;97.80
2327;DHT22;1174;51.588;7.328;2023-04-25T15:25:07;12.20;97.70
2327;DHT22;1174;51.588;7.328;2023-04-25T15:27:34;11.80;97.90
2327;DHT22;1174;51.588;7.328;2023-04-25T15:30:04;11.70;97.30
2327;DHT22;1174;51.588;7.328;2023-04-25T15:32:31;11.50;97.20
2327;DHT22;1174;51.588;7.328;2023-04-25T15:34:58;11.70;97.90
2327;DHT22;1174;51.588;7.328;2023-04-25T15:37:27;11.80;96.50
2327;DHT22;1174;51.588;7.328;2023-04-25T15:40:00;12.20;97.30
2327;DHT22;1174;51.588;7.328;2023-04-25T15:42:33;12.40;95.20
2327;DHT22;1174;51.588;7.328;2023-04-25T15:45:00;12.50;95.40
2327;DHT22;1174;51.588;7.328;2023-04-25T15:47:28;12.30;97.20
2327;DHT22;1174;51.588;7.328;2023-04-25T15:49:55;12.40;97.10
2327;DHT22;1174;51.588;7.328;2023-04-25T15:52:25;12.30;97.70
2327;DHT22;1174;51.588;7.328;2023-04-25T15:54:54;12.40;97.70
2327;DHT22;1174;51.588;7.328;2023-04-25T15:57:21;12.20;97.80
2327;DHT22;1174;51.588;7.328;2023-04-25T15:59:52;11.80;98.40
2327;DHT22;1174;51.588;7.328;2023-04-25T16:02:21;11.80;99.00
2327;DHT22;1174;51.588;7.328;2023-04-25T16:04:48;12.00;99.90
2327;DHT22;1174;51.588;7.328;2023-04-25T16:07:16;11.90;99.00
2327;DHT22;1174;51.588;7.328;2023-04-25T16:09:46;11.70;99.20
2327;DHT22;1174;51.588;7.328;2023-04-25T16:12:13;11.70;99.40
2327;DHT22;1174;51.588;7.328;2023-04-25T16:14:42;11.70;99.90
2327;DHT22;1174;51.588;7.328;2023-04-25T16:17:17;11.70;99.90
2327;DHT22;1174;51.588;7.328;2023-04-25T16:19:45;11.40;99.90
2327;DHT22;1174;51.588;7.328;2023-04-25T16:22:12;11.30;99.90
2327;DHT22;1174;51.588;7.328;2023-04-25T16:24:41;11.20;99.90
2327;DHT22;1174;51.588;7.328;2023-04-25T16:27:08;11.20;99.90
2327;DHT22;1174;51.588;7.328;2023-04-25T16:29:35;11.10;99.90